createdAt,value
2023-04-10T00:00:31.553Z,99.90
2023-04-10T00:03:02.369Z,99.90
2023-04-10T00:05:30.825Z,99.90
2023-04-10T00:07:58.779Z,99.90
2023-04-10T00:10:29.376Z,99.90
2023-04-10T00:12:57.525Z,99.90
2023-04-10T00:15:25.527Z,99.90
2023-04-10T00:17:55.472Z,99.90
2023-04-10T00:20:26.366Z,99.90
2023-04-10T00:22:54.583Z,99.90
2023-04-10T00:25:23.215Z,99.90
2023-04-10T00:27:51.242Z,99.90
2023-04-10T00:30:19.361Z,99.90
2023-04-10T00:32:47.308Z,99.90
2023-04-10T00:35:15.596Z,99.90
2023-04-10T00:37:44.832Z,99.90
2023-04-10T00:40:13.345Z,99.90
2023-04-10T00:42:41.718Z,99.90
2023-04-10T00:45:10.389Z,99.90
2023-04-10T00:47:39.391Z,99.90
2023-04-10T00:50:08.226Z,99.90
2023-04-10T00:52:36.827Z,99.90
2023-04-10T00:55:07.325Z,99.90
2023-04-10T00:57:35.463Z,99.90
2023-04-10T01:00:04.831Z,99.90
2023-04-10T01:02:33.234Z,99.90
2023-04-10T01:05:02.277Z,99.90
2023-04-10T01:07:43.807Z,99.90
2023-04-10T01:10:19.223Z,99.90
2023-04-10T01:12:57.026Z,99.90
2023-04-10T01:15:28.154Z,99.90
2023-04-10T01:18:02.904Z,99.90
2023-04-10T01:20:34.240Z,99.90
2023-04-10T01:23:32.645Z,99.90
2023-04-10T01:26:05.018Z,99.90
2023-04-10T01:29:00.191Z,99.90
2023-04-10T01:31:34.815Z,99.90
2023-04-10T01:34:08.397Z,99.90
2023-04-10T01:36:54.325Z,99.90
2023-04-10T01:39:23.816Z,99.90
2023-04-10T01:41:53.589Z,99.90
2023-04-10T01:44:26.833Z,99.90
2023-04-10T01:46:56.448Z,99.90
2023-04-10T01:49:27.407Z,99.90
2023-04-10T01:51:58.449Z,99.90
2023-04-10T01:54:28.326Z,99.90
2023-04-10T01:56:56.788Z,99.90
2023-04-10T01:59:26.188Z,99.90
2023-04-10T02:01:57.914Z,99.90
2023-04-10T02:04:26.547Z,99.90
2023-04-10T02:07:04.589Z,99.90
2023-04-10T02:09:41.535Z,99.90
2023-04-10T02:12:14.170Z,99.90
2023-04-10T02:14:47.472Z,99.90
2023-04-10T02:17:19.551Z,99.90
2023-04-10T02:19:48.734Z,99.90
2023-04-10T02:22:17.676Z,99.90
2023-04-10T02:24:45.944Z,99.90
2023-04-10T02:27:13.846Z,99.90
2023-04-10T02:29:43.092Z,99.90
2023-04-10T02:32:11.506Z,99.90
2023-04-10T02:34:39.368Z,99.90
2023-04-10T02:37:07.240Z,99.90
2023-04-10T02:39:37.137Z,99.90
2023-04-10T02:42:05.210Z,99.90
2023-04-10T02:44:33.138Z,99.90
2023-04-10T02:47:02.466Z,99.90
2023-04-10T02:49:30.510Z,99.90
2023-04-10T02:51:58.452Z,99.90
2023-04-10T02:54:26.373Z,99.90
2023-04-10T02:56:54.320Z,99.90
2023-04-10T02:59:23.016Z,99.90
2023-04-10T03:01:52.341Z,99.90
2023-04-10T03:04:21.759Z,99.90
2023-04-10T03:06:49.737Z,99.90
2023-04-10T03:09:17.769Z,99.90
2023-04-10T03:11:45.936Z,99.90
2023-04-10T03:14:14.222Z,99.90
2023-04-10T03:16:42.165Z,99.90
2023-04-10T03:19:10.063Z,99.90
2023-04-10T03:21:39.314Z,99.90
2023-04-10T03:24:07.521Z,99.90
2023-04-10T03:26:35.416Z,99.90
2023-04-10T03:29:03.715Z,99.90
2023-04-10T03:31:31.746Z,99.90
2023-04-10T03:33:59.767Z,99.90
2023-04-10T03:36:27.944Z,99.90
2023-04-10T03:38:57.283Z,99.90
2023-04-10T03:41:25.816Z,99.90
2023-04-10T03:43:54.126Z,99.90
2023-04-10T03:46:22.716Z,99.90
2023-04-10T03:48:52.805Z,99.90
2023-04-10T03:51:21.419Z,99.90
2023-04-10T03:53:49.349Z,99.90
2023-04-10T03:56:18.779Z,99.90
2023-04-10T03:58:46.725Z,99.90
2023-04-10T04:01:14.767Z,99.90
2023-04-10T04:03:43.105Z,99.90
2023-04-10T04:06:11.236Z,99.90
2023-04-10T04:08:39.673Z,99.90
2023-04-10T04:11:07.963Z,99.90
2023-04-10T04:13:37.212Z,99.90
2023-04-10T04:16:05.737Z,99.90
2023-04-10T04:18:33.598Z,99.90
2023-04-10T04:21:01.560Z,99.90
2023-04-10T04:23:29.517Z,99.90
2023-04-10T04:25:58.738Z,99.90
2023-04-10T04:28:27.886Z,99.90
2023-04-10T04:30:58.118Z,99.90
2023-04-10T04:33:26.010Z,99.90
2023-04-10T04:35:53.876Z,99.90
2023-04-10T04:38:21.802Z,99.90
2023-04-10T04:40:49.660Z,99.90
2023-04-10T04:43:17.652Z,99.90
2023-04-10T04:45:45.566Z,99.90
2023-04-10T04:48:14.911Z,99.90
2023-04-10T04:50:42.929Z,99.90
2023-04-10T04:53:10.895Z,99.90
2023-04-10T04:55:38.769Z,99.90
2023-04-10T04:58:06.720Z,99.90
2023-04-10T05:00:34.627Z,99.90
2023-04-10T05:03:02.724Z,99.90
2023-04-10T05:05:34.140Z,99.90
2023-04-10T05:08:02.044Z,99.90
2023-04-10T05:10:30.209Z,99.90
2023-04-10T05:12:58.188Z,99.90
2023-04-10T05:15:26.230Z,99.90
2023-04-10T05:17:54.744Z,99.90
2023-04-10T05:20:22.995Z,99.90
2023-04-10T05:22:57.006Z,99.90
2023-04-10T05:25:25.283Z,99.90
2023-04-10T05:27:53.606Z,99.30
2023-04-10T05:30:21.735Z,98.30
2023-04-10T05:32:49.699Z,96.80
2023-04-10T05:35:17.729Z,95.40
2023-04-10T05:37:45.634Z,94.80
2023-04-10T05:40:14.934Z,93.20
2023-04-10T05:42:42.792Z,91.90
2023-04-10T05:45:11.619Z,90.20
2023-04-10T05:47:39.653Z,87.60
2023-04-10T05:50:08.751Z,84.60
2023-04-10T05:52:36.704Z,81.90
2023-04-10T05:55:04.833Z,79.50
2023-04-10T05:57:34.589Z,76.80
2023-04-10T06:00:02.692Z,74.00
2023-04-10T06:02:30.957Z,71.10
2023-04-10T06:04:59.724Z,68.40
2023-04-10T06:07:28.924Z,65.40
2023-04-10T06:09:57.208Z,64.00
2023-04-10T06:12:25.535Z,62.70
2023-04-10T06:14:54.815Z,61.10
2023-04-10T06:17:24.299Z,60.60
2023-04-10T06:19:52.222Z,59.70
2023-04-10T06:22:20.111Z,58.90
2023-04-10T06:24:47.999Z,58.60
2023-04-10T06:27:16.304Z,57.50
2023-04-10T06:29:44.251Z,57.60
2023-04-10T06:32:13.478Z,57.50
2023-04-10T06:34:41.374Z,56.20
2023-04-10T06:37:09.256Z,56.00
2023-04-10T06:39:37.139Z,55.40
2023-04-10T06:42:05.077Z,55.00
2023-04-10T06:44:32.982Z,54.10
2023-04-10T06:47:00.990Z,52.50
2023-04-10T06:49:30.312Z,51.70
2023-04-10T06:51:58.201Z,50.70
2023-04-10T06:54:26.215Z,49.40
2023-04-10T06:56:58.811Z,48.50
2023-04-10T06:59:26.845Z,48.40
2023-04-10T07:01:54.741Z,47.40
2023-04-10T07:04:22.634Z,47.00
2023-04-10T07:06:52.547Z,47.60
2023-04-10T07:09:20.577Z,47.70
2023-04-10T07:11:48.447Z,46.60
2023-04-10T07:14:19.622Z,45.70
2023-04-10T07:16:47.857Z,45.20
2023-04-10T07:19:16.025Z,44.70
2023-04-10T07:21:43.959Z,43.90
2023-04-10T07:24:13.210Z,42.30
2023-04-10T07:26:41.202Z,42.20
2023-04-10T07:29:09.395Z,42.40
2023-04-10T07:31:37.467Z,43.00
2023-04-10T07:34:05.656Z,43.60
2023-04-10T07:36:33.757Z,44.70
2023-04-10T07:39:01.703Z,45.20
2023-04-10T07:41:31.229Z,45.80
2023-04-10T07:43:59.204Z,45.70
2023-04-10T07:46:27.576Z,44.80
2023-04-10T07:48:56.631Z,45.30
2023-04-10T07:51:25.034Z,44.90
2023-04-10T07:53:52.985Z,45.00
2023-04-10T07:56:22.194Z,44.10
2023-04-10T07:58:52.760Z,44.10
2023-04-10T08:01:20.911Z,44.10
2023-04-10T08:03:48.993Z,42.80
2023-04-10T08:06:17.026Z,43.00
2023-04-10T08:08:44.983Z,42.40
2023-04-10T08:11:25.231Z,42.40
2023-04-10T08:13:54.692Z,42.20
2023-04-10T08:16:25.833Z,42.00
2023-04-10T08:18:54.103Z,42.60
2023-04-10T08:21:23.023Z,42.60
2023-04-10T08:23:51.825Z,41.50
2023-04-10T08:26:21.359Z,42.70
2023-04-10T08:28:50.820Z,42.90
2023-04-10T08:31:20.569Z,43.80
2023-04-10T08:33:48.827Z,44.90
2023-04-10T08:36:19.810Z,44.90
2023-04-10T08:38:48.746Z,45.00
2023-04-10T08:41:17.701Z,44.20
2023-04-10T08:43:46.586Z,45.30
2023-04-10T08:46:15.936Z,44.60
2023-04-10T08:48:48.620Z,44.70
2023-04-10T08:51:20.590Z,44.10
2023-04-10T08:53:59.573Z,44.50
2023-04-10T08:56:28.197Z,44.80
2023-04-10T08:58:56.527Z,43.60
2023-04-10T09:01:26.076Z,42.30
2023-04-10T09:03:56.227Z,40.80
2023-04-10T09:06:24.472Z,39.40
2023-04-10T09:08:52.409Z,39.40
2023-04-10T09:11:20.620Z,39.80
2023-04-10T09:13:49.164Z,38.70
2023-04-10T09:16:17.097Z,38.00
2023-04-10T09:18:47.753Z,38.60
2023-04-10T09:21:19.686Z,38.90
2023-04-10T09:23:48.452Z,39.00
2023-04-10T09:26:27.622Z,38.50
2023-04-10T09:29:01.343Z,39.00
2023-04-10T09:31:31.434Z,38.80
2023-04-10T09:34:10.290Z,38.80
2023-04-10T09:36:41.404Z,38.60
2023-04-10T09:39:11.268Z,38.20
2023-04-10T09:41:52.901Z,37.90
2023-04-10T09:44:30.980Z,37.40
2023-04-10T09:46:59.127Z,38.10
2023-04-10T09:49:27.136Z,38.00
2023-04-10T09:51:57.898Z,37.70
2023-04-10T09:54:38.254Z,38.00
2023-04-10T09:57:08.331Z,38.20
2023-04-10T09:59:40.669Z,38.30
2023-04-10T10:02:10.658Z,37.90
2023-04-10T10:04:44.940Z,37.60
2023-04-10T10:07:15.506Z,36.90
2023-04-10T10:09:44.514Z,36.20
2023-04-10T10:12:13.741Z,35.40
2023-04-10T10:14:48.967Z,35.80
2023-04-10T10:17:19.431Z,36.30
2023-04-10T10:19:54.613Z,36.10
2023-04-10T10:22:28.780Z,35.70
2023-04-10T10:24:57.952Z,36.30
2023-04-10T10:27:27.361Z,36.70
2023-04-10T10:29:55.811Z,37.30
2023-04-10T10:32:25.023Z,37.70
2023-04-10T10:34:54.292Z,38.50
2023-04-10T10:37:24.849Z,39.00
2023-04-10T10:40:02.504Z,39.20
2023-04-10T10:42:35.396Z,40.40
2023-04-10T10:45:10.745Z,39.70
2023-04-10T10:47:43.268Z,39.40
2023-04-10T10:50:11.651Z,39.60
2023-04-10T10:52:45.682Z,39.10
2023-04-10T10:55:46.756Z,38.60
2023-04-10T10:58:17.158Z,37.80
2023-04-10T11:01:10.323Z,38.40
2023-04-10T11:03:39.141Z,39.20
2023-04-10T11:06:09.535Z,38.80
2023-04-10T11:08:43.792Z,39.20
2023-04-10T11:11:16.122Z,40.10
2023-04-10T11:14:18.879Z,40.70
2023-04-10T11:16:48.503Z,41.70
2023-04-10T11:19:22.688Z,42.00
2023-04-10T11:22:10.712Z,42.00
2023-04-10T11:24:56.485Z,40.10
2023-04-10T11:27:49.190Z,39.10
2023-04-10T11:30:41.155Z,40.40
2023-04-10T11:33:09.692Z,40.60
2023-04-10T11:35:37.777Z,41.60
2023-04-10T11:38:13.419Z,42.50
2023-04-10T11:41:04.966Z,41.20
2023-04-10T11:43:33.703Z,41.00
2023-04-10T11:46:03.443Z,40.70
2023-04-10T11:48:31.967Z,42.10
2023-04-10T11:51:07.475Z,42.70
2023-04-10T11:53:35.659Z,40.60
2023-04-10T11:56:07.600Z,40.90
2023-04-10T11:58:37.546Z,41.80
2023-04-10T12:01:06.733Z,42.30
2023-04-10T12:03:39.552Z,41.90
2023-04-10T12:06:11.155Z,43.00
2023-04-10T12:08:41.323Z,43.70
2023-04-10T12:11:11.724Z,44.70
2023-04-10T12:13:43.305Z,43.50
2023-04-10T12:16:12.935Z,44.70
2023-04-10T12:18:45.011Z,43.70
2023-04-10T12:21:13.538Z,43.90
2023-04-10T12:23:41.449Z,43.80
2023-04-10T12:26:13.766Z,45.00
2023-04-10T12:28:43.157Z,44.40
2023-04-10T12:31:11.691Z,45.60
2023-04-10T12:33:40.711Z,46.00
2023-04-10T12:36:22.102Z,46.60
2023-04-10T12:38:50.331Z,46.60
2023-04-10T12:41:24.668Z,47.20
2023-04-10T12:43:53.873Z,47.40
2023-04-10T12:46:27.766Z,47.60
2023-04-10T12:48:56.749Z,47.60
2023-04-10T12:51:42.642Z,46.60
2023-04-10T12:54:10.526Z,46.70
2023-04-10T12:56:47.600Z,47.50
2023-04-10T12:59:15.583Z,47.60
2023-04-10T13:01:43.991Z,48.50
2023-04-10T13:04:12.068Z,47.90
2023-04-10T13:06:44.300Z,49.00
2023-04-10T13:09:13.007Z,48.30
2023-04-10T13:11:41.767Z,49.30
2023-04-10T13:14:11.191Z,49.20
2023-04-10T13:16:39.196Z,48.00
2023-04-10T13:19:07.765Z,47.90
2023-04-10T13:21:35.723Z,48.70
2023-04-10T13:24:03.573Z,48.40
2023-04-10T13:26:31.770Z,48.40
2023-04-10T13:28:59.681Z,47.70
2023-04-10T13:31:29.112Z,48.90
2023-04-10T13:33:57.037Z,49.70
2023-04-10T13:36:25.065Z,49.10
2023-04-10T13:38:53.234Z,48.90
2023-04-10T13:41:21.832Z,49.10
2023-04-10T13:43:49.707Z,48.10
2023-04-10T13:46:18.083Z,49.50
2023-04-10T13:48:47.559Z,49.80
2023-04-10T13:51:15.517Z,49.80
2023-04-10T13:53:43.477Z,48.70
2023-04-10T13:56:11.487Z,47.70
2023-04-10T13:58:39.434Z,48.50
2023-04-10T14:01:07.845Z,48.30
2023-04-10T14:03:35.956Z,48.30
2023-04-10T14:06:05.707Z,48.00
2023-04-10T14:08:33.640Z,48.30
2023-04-10T14:11:01.884Z,47.60
2023-04-10T14:13:30.445Z,46.30
2023-04-10T14:15:58.599Z,47.20
2023-04-10T14:18:26.511Z,47.50
2023-04-10T14:20:54.596Z,47.20
2023-04-10T14:23:23.935Z,47.50
2023-04-10T14:25:52.267Z,48.50
2023-04-10T14:28:20.319Z,49.10
2023-04-10T14:30:50.043Z,48.50
2023-04-10T14:33:19.727Z,48.50
2023-04-10T14:35:49.115Z,47.30
2023-04-10T14:38:17.315Z,47.50
2023-04-10T14:40:50.041Z,48.60
2023-04-10T14:43:19.512Z,49.00
2023-04-10T14:45:47.828Z,49.20
2023-04-10T14:48:16.177Z,49.40
2023-04-10T14:50:44.722Z,48.90
2023-04-10T14:53:12.718Z,49.30
2023-04-10T14:55:40.617Z,49.40
2023-04-10T14:58:11.247Z,49.60
2023-04-10T15:00:39.182Z,50.10
2023-04-10T15:03:08.613Z,50.30
2023-04-10T15:05:36.874Z,49.70
2023-04-10T15:08:04.916Z,49.30
2023-04-10T15:10:32.872Z,49.20
2023-04-10T15:13:00.730Z,49.30
2023-04-10T15:15:29.939Z,48.80
2023-04-10T15:17:57.924Z,49.50
2023-04-10T15:20:25.773Z,49.60
2023-04-10T15:22:53.693Z,49.80
2023-04-10T15:25:21.677Z,49.80
2023-04-10T15:27:49.711Z,50.30
2023-04-10T15:30:17.698Z,50.20
2023-04-10T15:32:47.213Z,50.30
2023-04-10T15:35:15.197Z,50.20
2023-04-10T15:37:43.124Z,50.40
2023-04-10T15:40:11.877Z,50.40
2023-04-10T15:42:39.880Z,51.00
2023-04-10T15:45:08.412Z,51.20
2023-04-10T15:47:36.681Z,51.10
2023-04-10T15:50:07.596Z,51.10
2023-04-10T15:52:37.054Z,50.90
2023-04-10T15:55:05.271Z,51.20
2023-04-10T15:57:33.407Z,51.40
2023-04-10T16:00:02.262Z,51.40
2023-04-10T16:02:32.101Z,51.60
2023-04-10T16:05:00.379Z,51.40
2023-04-10T16:07:29.800Z,51.40
2023-04-10T16:09:58.308Z,51.30
2023-04-10T16:12:26.322Z,51.30
2023-04-10T16:14:54.256Z,51.60
2023-04-10T16:17:22.141Z,51.70
2023-04-10T16:19:50.157Z,51.80
2023-04-10T16:22:18.117Z,51.80
2023-04-10T16:24:47.345Z,51.50
2023-04-10T16:27:15.341Z,52.00
2023-04-10T16:29:43.205Z,52.10
2023-04-10T16:32:11.199Z,52.60
2023-04-10T16:34:39.179Z,52.70
2023-04-10T16:37:07.383Z,52.80
2023-04-10T16:39:35.683Z,53.10
2023-04-10T16:42:05.141Z,53.30
2023-04-10T16:44:33.644Z,53.50
2023-04-10T16:47:01.702Z,53.60
2023-04-10T16:49:29.753Z,53.50
2023-04-10T16:51:57.705Z,53.40
2023-04-10T16:54:25.705Z,53.50
2023-04-10T16:56:53.764Z,54.40
2023-04-10T16:59:23.112Z,53.90
2023-04-10T17:01:52.755Z,54.30
2023-04-10T17:04:20.983Z,54.50
2023-04-10T17:06:49.073Z,54.60
2023-04-10T17:09:17.049Z,54.70
2023-04-10T17:11:45.289Z,54.90
2023-04-10T17:14:13.455Z,55.10
2023-04-10T17:16:42.986Z,55.20
2023-04-10T17:19:10.916Z,55.10
2023-04-10T17:21:38.958Z,55.30
2023-04-10T17:24:07.188Z,55.60
2023-04-10T17:26:37.304Z,55.70
2023-04-10T17:29:05.436Z,55.80
2023-04-10T17:31:36.684Z,55.90
2023-04-10T17:34:06.320Z,56.10
2023-04-10T17:36:34.302Z,56.40
2023-04-10T17:39:02.310Z,56.40
2023-04-10T17:41:30.331Z,56.80
2023-04-10T17:43:58.301Z,56.90
2023-04-10T17:46:26.320Z,56.90
2023-04-10T17:48:59.955Z,57.40
2023-04-10T17:51:29.827Z,57.40
2023-04-10T17:53:57.929Z,57.50
2023-04-10T17:56:25.883Z,57.70
2023-04-10T17:58:54.924Z,57.80
2023-04-10T18:01:24.190Z,57.90
2023-04-10T18:03:52.585Z,59.00
2023-04-10T18:06:20.947Z,58.50
2023-04-10T18:08:51.058Z,58.40
2023-04-10T18:11:19.274Z,58.60
2023-04-10T18:13:48.216Z,58.80
2023-04-10T18:16:17.753Z,58.80
2023-04-10T18:18:46.694Z,58.80
2023-04-10T18:21:14.749Z,58.70
2023-04-10T18:23:44.634Z,58.90
2023-04-10T18:26:14.610Z,58.90
2023-04-10T18:28:46.528Z,59.00
2023-04-10T18:31:16.890Z,59.00
2023-04-10T18:33:45.663Z,59.30
2023-04-10T18:36:14.269Z,59.30
2023-04-10T18:38:43.915Z,59.70
2023-04-10T18:41:12.126Z,59.50
2023-04-10T18:43:42.399Z,59.70
2023-04-10T18:46:14.366Z,59.80
2023-04-10T18:48:44.002Z,59.90
2023-04-10T18:51:13.082Z,59.70
2023-04-10T18:53:41.420Z,59.70
2023-04-10T18:56:10.276Z,59.70
2023-04-10T18:58:38.500Z,59.80
2023-04-10T19:01:10.675Z,59.70
2023-04-10T19:03:40.767Z,59.70
2023-04-10T19:06:09.799Z,59.60
2023-04-10T19:08:38.711Z,59.50
2023-04-10T19:11:08.199Z,59.80
2023-04-10T19:13:36.635Z,59.90
2023-04-10T19:16:05.322Z,59.90
2023-04-10T19:18:34.910Z,59.90
2023-04-10T19:21:04.189Z,60.00
2023-04-10T19:23:32.235Z,60.00
2023-04-10T19:26:00.599Z,60.20
2023-04-10T19:28:30.198Z,60.50
2023-04-10T19:30:58.605Z,60.30
2023-04-10T19:33:26.851Z,60.50
2023-04-10T19:35:56.782Z,60.70
2023-04-10T19:38:24.863Z,61.10
2023-04-10T19:40:53.188Z,61.10
2023-04-10T19:43:21.324Z,61.30
2023-04-10T19:45:49.800Z,61.40
2023-04-10T19:48:18.209Z,61.80
2023-04-10T19:50:46.188Z,61.70
2023-04-10T19:53:15.791Z,61.80
2023-04-10T19:55:45.809Z,62.00
2023-04-10T19:58:35.591Z,62.50
2023-04-10T20:01:05.406Z,62.50
2023-04-10T20:03:35.816Z,62.90
2023-04-10T20:06:07.505Z,63.00
2023-04-10T20:08:37.550Z,63.30
2023-04-10T20:11:06.893Z,63.50
2023-04-10T20:13:35.493Z,63.70
2023-04-10T20:16:04.028Z,64.00
2023-04-10T20:18:33.069Z,64.30
2023-04-10T20:21:01.346Z,64.20
2023-04-10T20:23:29.447Z,64.30
2023-04-10T20:25:59.624Z,64.50
2023-04-10T20:28:27.812Z,64.70
2023-04-10T20:30:56.127Z,65.00
2023-04-10T20:33:24.529Z,65.20
2023-04-10T20:35:53.964Z,65.30
2023-04-10T20:38:22.092Z,65.50
2023-04-10T20:40:50.198Z,65.70
2023-04-10T20:43:19.790Z,65.70
2023-04-10T20:45:50.487Z,65.60
2023-04-10T20:48:18.507Z,66.40
2023-04-10T20:50:49.130Z,65.90
2023-04-10T20:53:17.151Z,66.10
2023-04-10T20:55:45.120Z,66.10
2023-04-10T20:58:13.168Z,66.40
2023-04-10T21:00:42.599Z,66.70
2023-04-10T21:03:10.913Z,66.80
2023-04-10T21:05:41.442Z,67.10
2023-04-10T21:08:09.649Z,67.20
2023-04-10T21:10:44.018Z,67.60
2023-04-10T21:13:13.208Z,67.60
2023-04-10T21:15:42.855Z,68.00
2023-04-10T21:18:11.120Z,68.10
2023-04-10T21:20:39.181Z,68.40
2023-04-10T21:23:07.223Z,68.20
2023-04-10T21:25:38.326Z,68.50
2023-04-10T21:28:06.329Z,68.70
2023-04-10T21:30:34.418Z,69.00
2023-04-10T21:33:04.094Z,69.10
2023-04-10T21:35:32.150Z,69.10
2023-04-10T21:38:02.330Z,70.00
2023-04-10T21:40:34.165Z,69.50
2023-04-10T21:43:02.578Z,69.80
2023-04-10T21:45:30.861Z,70.00
2023-04-10T21:48:00.387Z,70.50
2023-04-10T21:50:29.878Z,70.50
2023-04-10T21:52:57.955Z,70.60
2023-04-10T21:55:25.871Z,70.70
2023-04-10T21:57:53.854Z,70.80
2023-04-10T22:00:23.112Z,71.10
2023-04-10T22:02:51.776Z,71.20
2023-04-10T22:05:19.933Z,71.20
2023-04-10T22:07:49.347Z,71.40
2023-04-10T22:10:17.761Z,71.70
2023-04-10T22:12:48.548Z,71.90
2023-04-10T22:15:17.216Z,72.10
2023-04-10T22:17:45.510Z,72.40
2023-04-10T22:20:13.907Z,72.50
2023-04-10T22:22:41.996Z,72.70
2023-04-10T22:25:11.605Z,72.70
2023-04-10T22:27:39.701Z,72.90
2023-04-10T22:30:09.815Z,73.10
2023-04-10T22:32:38.039Z,74.10
2023-04-10T22:35:07.100Z,73.50
2023-04-10T22:37:35.072Z,74.00
2023-04-10T22:40:03.054Z,74.00
2023-04-10T22:42:32.337Z,74.10
2023-04-10T22:45:00.456Z,74.10
2023-04-10T22:47:28.406Z,74.10
2023-04-10T22:49:56.396Z,74.40
2023-04-10T22:52:24.266Z,74.40
2023-04-10T22:54:52.227Z,74.70
2023-04-10T22:57:20.134Z,75.20
2023-04-10T22:59:49.683Z,75.20
2023-04-10T23:02:17.778Z,75.50
2023-04-10T23:04:46.077Z,75.70
2023-04-10T23:07:14.097Z,75.90
2023-04-10T23:09:42.040Z,76.00
2023-04-10T23:12:09.996Z,76.00
2023-04-10T23:14:37.948Z,76.30
2023-04-10T23:17:07.214Z,76.50
2023-04-10T23:19:35.150Z,76.70
2023-04-10T23:22:03.139Z,76.80
2023-04-10T23:24:31.144Z,77.00
2023-04-10T23:26:59.080Z,77.10
2023-04-10T23:29:27.050Z,77.40
2023-04-10T23:31:54.949Z,77.50
2023-04-10T23:34:26.619Z,78.00
2023-04-10T23:36:54.717Z,78.10
2023-04-10T23:39:22.748Z,78.00
2023-04-10T23:41:50.681Z,77.80
2023-04-10T23:44:18.578Z,78.40
2023-04-10T23:46:46.601Z,78.50
2023-04-10T23:49:14.569Z,78.50
2023-04-10T23:51:44.886Z,78.70
2023-04-10T23:54:13.543Z,78.60
2023-04-10T23:56:41.547Z,79.10
2023-04-10T23:59:09.563Z,79.20
